sensor_id;sensor_type;location;lat;lon;timestamp;pressure;altitude;pressure_sealevel;temperature;humidity
58843;BME280;44614;54.356;10.100;2022-11-15T00:01:18;100929.88;;;5.19;100.00
58843;BME280;44614;54.356;10.100;2022-11-15T00:03:44;100932.97;;;5.16;100.00
58843;BME280;44614;54.356;10.100;2022-11-15T00:06:10;100941.44;;;5.21;100.00
58843;BME280;44614;54.356;10.100;2022-11-15T00:08:35;100919.16;;;5.02;100.00
58843;BME280;44614;54.356;10.100;2022-11-15T00:11:02;100923.78;;;5.17;100.00
58843;BME280;44614;54.356;10.100;2022-11-15T00:13:28;100937.03;;;5.20;100.00
58843;BME280;44614;54.356;10.100;2022-11-15T00:15:57;100932.41;;;5.20;100.00
58843;BME280;44614;54.356;10.100;2022-11-15T00:18:23;100934.09;;;5.21;100.00
58843;BME280;44614;54.356;10.100;2022-11-15T00:20:48;100931.38;;;5.21;100.00
58843;BME280;44614;54.356;10.100;2022-11-15T00:23:14;100934.09;;;5.21;100.00
58843;BME280;44614;54.356;10.100;2022-11-15T00:25:39;100940.38;;;5.22;100.00
58843;BME280;44614;54.356;10.100;2022-11-15T00:28:04;100941.22;;;5.22;100.00
58843;BME280;44614;54.356;10.100;2022-11-15T00:30:30;100932.22;;;5.22;100.00
58843;BME280;44614;54.356;10.100;2022-11-15T00:32:55;100933.25;;;5.21;100.00
58843;BME280;44614;54.356;10.100;2022-11-15T00:35:21;100921.53;;;5.20;100.00
58843;BME280;44614;54.356;10.100;2022-11-15T00:37:47;100933.25;;;5.21;100.00
58843;BME280;44614;54.356;10.100;2022-11-15T00:40:13;100923.41;;;5.20;100.00
58843;BME280;44614;54.356;10.100;2022-11-15T00:42:39;100918.78;;;5.05;100.00
58843;BME280;44614;54.356;10.100;2022-11-15T00:45:05;100929.69;;;5.20;100.00
58843;BME280;44614;54.356;10.100;2022-11-15T00:47:30;100892.50;;;4.98;100.00
58843;BME280;44614;54.356;10.100;2022-11-15T00:49:56;100916.25;;;5.19;100.00
58843;BME280;44614;54.356;10.100;2022-11-15T00:52:21;100921.69;;;5.19;100.00
58843;BME280;44614;54.356;10.100;2022-11-15T00:54:46;100921.06;;;5.17;100.00
58843;BME280;44614;54.356;10.100;2022-11-15T00:57:12;100915.59;;;5.17;100.00
58843;BME280;44614;54.356;10.100;2022-11-15T00:59:37;100916.81;;;5.14;100.00
58843;BME280;44614;54.356;10.100;2022-11-15T01:02:02;100917.66;;;5.14;100.00
58843;BME280;44614;54.356;10.100;2022-11-15T01:04:28;100910.72;;;5.12;100.00
58843;BME280;44614;54.356;10.100;2022-11-15T01:06:53;100914.94;;;5.14;100.00
58843;BME280;44614;54.356;10.100;2022-11-15T01:09:19;100906.78;;;5.14;100.00
58843;BME280;44614;54.356;10.100;2022-11-15T01:11:44;100908.84;;;5.12;100.00
58843;BME280;44614;54.356;10.100;2022-11-15T01:14:09;100906.28;;;5.11;100.00
58843;BME280;44614;54.356;10.100;2022-11-15T01:16:34;100907.53;;;5.08;100.00
58843;BME280;44614;54.356;10.100;2022-11-15T01:19:00;100913.81;;;5.09;100.00
58843;BME280;44614;54.356;10.100;2022-11-15T01:21:25;100908.38;;;5.09;100.00
58843;BME280;44614;54.356;10.100;2022-11-15T01:23:54;100904.81;;;5.08;100.00
58843;BME280;44614;54.356;10.100;2022-11-15T01:26:20;100906.84;;;5.06;100.00
58843;BME280;44614;54.356;10.100;2022-11-15T01:28:46;100906.84;;;5.06;100.00
58843;BME280;44614;54.356;10.100;2022-11-15T01:31:17;100869.66;;;4.84;100.00
58843;BME280;44614;54.356;10.100;2022-11-15T01:33:43;100912.13;;;5.08;100.00
58843;BME280;44614;54.356;10.100;2022-11-15T01:36:27;100902.94;;;5.09;100.00
58843;BME280;44614;54.356;10.100;2022-11-15T01:38:56;100901.41;;;5.06;100.00
58843;BME280;44614;54.356;10.100;2022-11-15T01:41:27;100888.84;;;5.05;100.00
58843;BME280;44614;54.356;10.100;2022-11-15T01:43:56;100894.47;;;5.04;100.00
58843;BME280;44614;54.356;10.100;2022-11-15T01:46:29;100871.84;;;4.88;100.00
58843;BME280;44614;54.356;10.100;2022-11-15T01:48:58;100859.53;;;4.78;100.00
58843;BME280;44614;54.356;10.100;2022-11-15T01:51:27;100891.09;;;5.02;100.00
58843;BME280;44614;54.356;10.100;2022-11-15T01:54:05;100885.16;;;4.98;100.00
58843;BME280;44614;54.356;10.100;2022-11-15T01:56:41;100877.13;;;5.05;100.00
58843;BME280;44614;54.356;10.100;2022-11-15T01:59:09;100868.09;;;5.04;100.00
58843;BME280;44614;54.356;10.100;2022-11-15T02:01:35;100876.28;;;5.04;100.00
58843;BME280;44614;54.356;10.100;2022-11-15T02:04:16;100843.75;;;4.88;100.00
58843;BME280;44614;54.356;10.100;2022-11-15T02:06:43;100866.03;;;5.06;100.00
58843;BME280;44614;54.356;10.100;2022-11-15T02:09:10;100863.97;;;5.08;100.00
58843;BME280;44614;54.356;10.100;2022-11-15T02:11:36;100862.25;;;5.07;100.00
58843;BME280;44614;54.356;10.100;2022-11-15T02:14:02;100859.53;;;5.07;100.00
58843;BME280;44614;54.356;10.100;2022-11-15T02:22:00;100862.25;;;5.07;100.00
58843;BME280;44614;54.356;10.100;2022-11-15T02:30:40;100858.53;;;5.08;100.00
58843;BME280;44614;54.356;10.100;2022-11-15T02:36:14;100860.22;;;5.09;100.00
58843;BME280;44614;54.356;10.100;2022-11-15T02:38:47;100865.66;;;5.09;100.00
58843;BME280;44614;54.356;10.100;2022-11-15T02:41:30;100869.22;;;5.10;100.00
58843;BME280;44614;54.356;10.100;2022-11-15T02:44:01;100872.78;;;5.10;100.00
58843;BME280;44614;54.356;10.100;2022-11-15T02:46:38;100869.22;;;5.10;100.00
58843;BME280;44614;54.356;10.100;2022-11-15T02:49:27;100855.13;;;5.06;100.00
58843;BME280;44614;54.356;10.100;2022-11-15T02:51:54;100851.00;;;5.10;100.00
58843;BME280;44614;54.356;10.100;2022-11-15T02:54:23;100853.72;;;5.10;100.00
58843;BME280;44614;54.356;10.100;2022-11-15T02:56:49;100850.38;;;5.08;100.00
58843;BME280;44614;54.356;10.100;2022-11-15T03:04:54;100849.69;;;5.06;100.00
58843;BME280;44614;54.356;10.100;2022-11-15T03:13:02;100853.81;;;5.02;100.00
58843;BME280;44614;54.356;10.100;2022-11-15T03:18:30;100839.56;;;5.00;100.00
58843;BME280;44614;54.356;10.100;2022-11-15T03:21:00;100853.19;;;5.00;100.00
58843;BME280;44614;54.356;10.100;2022-11-15T03:23:29;100828.84;;;4.99;100.00
58843;BME280;44614;54.356;10.100;2022-11-15T03:25:56;100777.06;;;4.62;100.00
58843;BME280;44614;54.356;10.100;2022-11-15T03:28:32;100833.66;;;4.97;100.00
58843;BME280;44614;54.356;10.100;2022-11-15T03:31:01;100832.63;;;4.98;100.00
58843;BME280;44614;54.356;10.100;2022-11-15T03:33:50;100830.47;;;4.93;100.00
58843;BME280;44614;54.356;10.100;2022-11-15T03:36:17;100822.47;;;4.92;100.00
58843;BME280;44614;54.356;10.100;2022-11-15T03:38:44;100788.00;;;4.69;100.00
58843;BME280;44614;54.356;10.100;2022-11-15T03:41:17;100816.19;;;4.91;100.00
58843;BME280;44614;54.356;10.100;2022-11-15T03:46:51;100811.31;;;4.86;100.00
58843;BME280;44614;54.356;10.100;2022-11-15T03:49:25;100786.16;;;4.70;100.00
58843;BME280;44614;54.356;10.100;2022-11-15T03:51:52;100807.06;;;4.84;100.00
58843;BME280;44614;54.356;10.100;2022-11-15T03:54:18;100814.22;;;4.85;100.00
58843;BME280;44614;54.356;10.100;2022-11-15T03:56:43;100818.78;;;4.84;100.00
58843;BME280;44614;54.356;10.100;2022-11-15T03:59:08;100802.09;;;4.73;100.00
58843;BME280;44614;54.356;10.100;2022-11-15T04:01:34;100817.47;;;4.80;100.00
58843;BME280;44614;54.356;10.100;2022-11-15T04:03:59;100824.44;;;4.83;100.00
58843;BME280;44614;54.356;10.100;2022-11-15T04:06:24;100817.47;;;4.80;100.00
58843;BME280;44614;54.356;10.100;2022-11-15T04:08:50;100826.69;;;4.79;100.00
58843;BME280;44614;54.356;10.100;2022-11-15T04:11:15;100815.69;;;4.73;100.00
58843;BME280;44614;54.356;10.100;2022-11-15T04:13:40;100828.56;;;4.79;100.00
58843;BME280;44614;54.356;10.100;2022-11-15T04:16:06;100818.53;;;4.79;100.00
58843;BME280;44614;54.356;10.100;2022-11-15T04:18:31;100820.75;;;4.76;100.00
58843;BME280;44614;54.356;10.100;2022-11-15T04:20:56;100817.69;;;4.79;100.00
58843;BME280;44614;54.356;10.100;2022-11-15T04:23:40;100817.00;;;4.77;100.00
58843;BME280;44614;54.356;10.100;2022-11-15T04:26:24;100823.31;;;4.77;100.00
58843;BME280;44614;54.356;10.100;2022-11-15T04:28:49;100835.03;;;4.78;100.00
58843;BME280;44614;54.356;10.100;2022-11-15T04:31:33;100829.75;;;4.76;100.00
58843;BME280;44614;54.356;10.100;2022-11-15T04:33:59;100816.94;;;4.70;100.00
58843;BME280;44614;54.356;10.100;2022-11-15T04:36:25;100821.13;;;4.73;100.00
58843;BME280;44614;54.356;10.100;2022-11-15T04:39:09;100826.19;;;4.76;100.00
58843;BME280;44614;54.356;10.100;2022-11-15T04:41:34;100821.81;;;4.75;100.00
58843;BME280;44614;54.356;10.100;2022-11-15T04:44:00;100835.22;;;4.76;100.00
58843;BME280;44614;54.356;10.100;2022-11-15T04:46:26;100837.09;;;4.76;100.00
58843;BME280;44614;54.356;10.100;2022-11-15T04:48:52;100761.88;;;4.30;100.00
58843;BME280;44614;54.356;10.100;2022-11-15T04:51:17;100834.56;;;4.74;100.00
58843;BME280;44614;54.356;10.100;2022-11-15T04:53:43;100833.72;;;4.74;100.00
58843;BME280;44614;54.356;10.100;2022-11-15T04:56:08;100842.91;;;4.73;100.00
58843;BME280;44614;54.356;10.100;2022-11-15T04:58:34;100842.91;;;4.73;100.00
58843;BME280;44614;54.356;10.100;2022-11-15T05:01:09;100846.00;;;4.70;100.00
58843;BME280;44614;54.356;10.100;2022-11-15T05:03:36;100822.63;;;4.60;100.00
58843;BME280;44614;54.356;10.100;2022-11-15T05:06:20;100798.94;;;4.46;100.00
58843;BME280;44614;54.356;10.100;2022-11-15T05:08:45;100844.69;;;4.66;100.00
58843;BME280;44614;54.356;10.100;2022-11-15T05:11:10;100834.66;;;4.66;100.00
58843;BME280;44614;54.356;10.100;2022-11-15T05:13:36;100842.97;;;4.64;100.00
58843;BME280;44614;54.356;10.100;2022-11-15T05:16:01;100799.34;;;4.43;100.00
58843;BME280;44614;54.356;10.100;2022-11-15T05:18:26;100835.38;;;4.60;100.00
58843;BME280;44614;54.356;10.100;2022-11-15T05:20:52;100829.09;;;4.59;100.00
58843;BME280;44614;54.356;10.100;2022-11-15T05:23:17;100852.91;;;4.57;100.00
58843;BME280;44614;54.356;10.100;2022-11-15T05:25:42;100820.81;;;4.53;100.00
58843;BME280;44614;54.356;10.100;2022-11-15T05:28:08;100830.50;;;4.55;100.00
58843;BME280;44614;54.356;10.100;2022-11-15T05:30:33;100840.34;;;4.56;100.00
58843;BME280;44614;54.356;10.100;2022-11-15T05:32:59;100840.53;;;4.55;100.00
58843;BME280;44614;54.356;10.100;2022-11-15T05:35:35;100832.72;;;4.52;100.00
58843;BME280;44614;54.356;10.100;2022-11-15T05:38:03;100843.41;;;4.53;100.00
58843;BME280;44614;54.356;10.100;2022-11-15T05:40:29;100845.50;;;4.51;100.00
58843;BME280;44614;54.356;10.100;2022-11-15T05:42:56;100849.06;;;4.52;100.00
58843;BME280;44614;54.356;10.100;2022-11-15T05:45:22;100825.38;;;4.37;100.00
58843;BME280;44614;54.356;10.100;2022-11-15T05:47:48;100851.09;;;4.50;100.00
58843;BME280;44614;54.356;10.100;2022-11-15T05:50:16;100826.88;;;4.40;100.00
58843;BME280;44614;54.356;10.100;2022-11-15T05:52:45;100843.53;;;4.60;100.00
58843;BME280;44614;54.356;10.100;2022-11-15T05:55:11;100836.88;;;4.62;100.00
58843;BME280;44614;54.356;10.100;2022-11-15T05:57:37;100831.72;;;4.68;100.00
58843;BME280;44614;54.356;10.100;2022-11-15T06:00:03;100825.94;;;4.71;100.00
58843;BME280;44614;54.356;10.100;2022-11-15T06:02:28;100819.44;;;4.72;100.00
58843;BME280;44614;54.356;10.100;2022-11-15T06:04:54;100819.09;;;4.75;100.00
58843;BME280;44614;54.356;10.100;2022-11-15T06:07:19;100812.59;;;4.76;100.00
58843;BME280;44614;54.356;10.100;2022-11-15T06:09:44;100816.63;;;4.80;100.00
58843;BME280;44614;54.356;10.100;2022-11-15T06:12:09;100809.78;;;4.84;100.00
58843;BME280;44614;54.356;10.100;2022-11-15T06:14:35;100817.59;;;4.87;100.00
58843;BME280;44614;54.356;10.100;2022-11-15T06:17:00;100809.69;;;4.92;100.00
58843;BME280;44614;54.356;10.100;2022-11-15T06:19:25;100818.53;;;4.94;100.00
58843;BME280;44614;54.356;10.100;2022-11-15T06:21:51;100819.75;;;4.92;100.00
58843;BME280;44614;54.356;10.100;2022-11-15T06:24:16;100833.47;;;4.98;100.00
58843;BME280;44614;54.356;10.100;2022-11-15T06:26:41;100823.25;;;5.00;100.00
58843;BME280;44614;54.356;10.100;2022-11-15T06:29:06;100823.88;;;5.02;100.00
58843;BME280;44614;54.356;10.100;2022-11-15T06:31:33;100815.53;;;5.04;100.00
58843;BME280;44614;54.356;10.100;2022-11-15T06:33:59;100821.44;;;5.07;100.00
58843;BME280;44614;54.356;10.100;2022-11-15T06:36:24;100820.22;;;5.10;100.00
58843;BME280;44614;54.356;10.100;2022-11-15T06:38:50;100827.19;;;5.12;100.00
58843;BME280;44614;54.356;10.100;2022-11-15T06:41:16;100828.84;;;5.13;100.00
58843;BME280;44614;54.356;10.100;2022-11-15T06:43:42;100816.00;;;5.07;100.00
58843;BME280;44614;54.356;10.100;2022-11-15T06:46:08;100819.00;;;5.12;100.00
58843;BME280;44614;54.356;10.100;2022-11-15T06:48:34;100831.38;;;5.15;100.00
58843;BME280;44614;54.356;10.100;2022-11-15T06:51:01;100831.38;;;5.15;100.00
58843;BME280;44614;54.356;10.100;2022-11-15T06:53:27;100834.97;;;5.16;100.00
58843;BME280;44614;54.356;10.100;2022-11-15T06:55:53;100834.31;;;5.13;100.00
58843;BME280;44614;54.356;10.100;2022-11-15T06:58:20;100856.09;;;5.13;100.00
58843;BME280;44614;54.356;10.100;2022-11-15T07:00:45;100847.28;;;5.11;100.00
58843;BME280;44614;54.356;10.100;2022-11-15T07:03:10;100853.09;;;5.08;100.00
58843;BME280;44614;54.356;10.100;2022-11-15T07:05:36;100847.66;;;5.08;100.00
58843;BME280;44614;54.356;10.100;2022-11-15T07:08:01;100857.28;;;5.11;100.00
58843;BME280;44614;54.356;10.100;2022-11-15T07:10:27;100849.81;;;5.13;100.00
58843;BME280;44614;54.356;10.100;2022-11-15T07:12:53;100856.91;;;5.14;100.00
58843;BME280;44614;54.356;10.100;2022-11-15T07:15:20;100863.03;;;5.16;100.00
58843;BME280;44614;54.356;10.100;2022-11-15T07:17:46;100859.16;;;5.10;100.00
58843;BME280;44614;54.356;10.100;2022-11-15T07:20:12;100884.06;;;5.22;100.00
58843;BME280;44614;54.356;10.100;2022-11-15T07:22:39;100884.72;;;5.24;100.00
58843;BME280;44614;54.356;10.100;2022-11-15T07:25:04;100852.63;;;5.20;100.00
58843;BME280;44614;54.356;10.100;2022-11-15T07:27:30;100869.50;;;5.30;100.00
58843;BME280;44614;54.356;10.100;2022-11-15T07:29:55;100870.19;;;5.32;100.00
58843;BME280;44614;54.356;10.100;2022-11-15T07:32:20;100873.53;;;5.34;100.00
58843;BME280;44614;54.356;10.100;2022-11-15T07:34:46;100876.94;;;5.36;100.00
58843;BME280;44614;54.356;10.100;2022-11-15T07:37:12;100870.28;;;5.38;100.00
58843;BME280;44614;54.356;10.100;2022-11-15T07:39:37;100878.91;;;5.42;100.00
58843;BME280;44614;54.356;10.100;2022-11-15T07:42:03;100856.09;;;5.28;100.00
58843;BME280;44614;54.356;10.100;2022-11-15T07:44:46;100885.47;;;5.48;100.00
58843;BME280;44614;54.356;10.100;2022-11-15T07:47:12;100875.03;;;5.51;100.00
58843;BME280;44614;54.356;10.100;2022-11-15T07:49:37;100879.44;;;5.52;100.00
58843;BME280;44614;54.356;10.100;2022-11-15T07:52:03;100882.66;;;5.56;100.00
58843;BME280;44614;54.356;10.100;2022-11-15T07:54:28;100878.72;;;5.58;100.00
58843;BME280;44614;54.356;10.100;2022-11-15T07:56:53;100889.03;;;5.63;100.00
58843;BME280;44614;54.356;10.100;2022-11-15T07:59:19;100882.38;;;5.66;100.00
58843;BME280;44614;54.356;10.100;2022-11-15T08:01:44;100876.53;;;5.69;100.00
58843;BME280;44614;54.356;10.100;2022-11-15T08:04:10;100887.03;;;5.72;100.00
58843;BME280;44614;54.356;10.100;2022-11-15T08:06:36;100882.44;;;5.72;100.00
58843;BME280;44614;54.356;10.100;2022-11-15T08:09:01;100881.22;;;5.75;100.00
58843;BME280;44614;54.356;10.100;2022-11-15T08:11:27;100875.38;;;5.78;100.00
58843;BME280;44614;54.356;10.100;2022-11-15T08:13:52;100859.88;;;5.78;100.00
58843;BME280;44614;54.356;10.100;2022-11-15T08:16:17;100864.09;;;5.81;100.00
58843;BME280;44614;54.356;10.100;2022-11-15T08:18:42;100875.47;;;5.84;100.00
58843;BME280;44614;54.356;10.100;2022-11-15T08:21:09;100869.19;;;5.84;100.00
58843;BME280;44614;54.356;10.100;2022-11-15T08:23:34;100875.28;;;5.86;100.00
58843;BME280;44614;54.356;10.100;2022-11-15T08:26:04;100840.53;;;5.73;100.00
58843;BME280;44614;54.356;10.100;2022-11-15T08:28:31;100877.41;;;5.91;100.00
58843;BME280;44614;54.356;10.100;2022-11-15T08:30:56;100869.72;;;5.94;100.00
58843;BME280;44614;54.356;10.100;2022-11-15T08:33:22;100879.88;;;6.00;100.00
58843;BME280;44614;54.356;10.100;2022-11-15T08:35:48;100868.59;;;6.03;100.00
58843;BME280;44614;54.356;10.100;2022-11-15T08:38:13;100887.47;;;6.05;100.00
58843;BME280;44614;54.356;10.100;2022-11-15T08:40:39;100869.91;;;6.07;100.00
58843;BME280;44614;54.356;10.100;2022-11-15T08:43:05;100873.25;;;6.09;100.00
58843;BME280;44614;54.356;10.100;2022-11-15T08:45:31;100880.84;;;6.14;100.00
58843;BME280;44614;54.356;10.100;2022-11-15T08:47:57;100875.84;;;6.18;100.00
58843;BME280;44614;54.356;10.100;2022-11-15T08:50:22;100873.59;;;6.21;100.00
58843;BME280;44614;54.356;10.100;2022-11-15T08:52:48;100876.78;;;6.25;100.00
58843;BME280;44614;54.356;10.100;2022-11-15T08:55:14;100839.06;;;6.07;100.00
58843;BME280;44614;54.356;10.100;2022-11-15T08:57:39;100868.00;;;6.29;100.00
58843;BME280;44614;54.356;10.100;2022-11-15T09:00:05;100872.69;;;6.35;100.00
58843;BME280;44614;54.356;10.100;2022-11-15T09:02:31;100848.50;;;6.26;100.00
58843;BME280;44614;54.356;10.100;2022-11-15T09:04:56;100860.28;;;6.33;100.00
58843;BME280;44614;54.356;10.100;2022-11-15T09:07:21;100871.50;;;6.45;100.00
58843;BME280;44614;54.356;10.100;2022-11-15T09:09:47;100878.47;;;6.47;100.00
58843;BME280;44614;54.356;10.100;2022-11-15T09:12:12;100872.84;;;6.49;100.00
58843;BME280;44614;54.356;10.100;2022-11-15T09:14:38;100876.00;;;6.52;100.00
58843;BME280;44614;54.356;10.100;2022-11-15T09:17:06;100841.66;;;6.37;100.00
58843;BME280;44614;54.356;10.100;2022-11-15T09:19:31;100874.16;;;6.59;100.00
58843;BME280;44614;54.356;10.100;2022-11-15T09:21:57;100871.06;;;6.63;100.00
58843;BME280;44614;54.356;10.100;2022-11-15T09:24:22;100867.09;;;6.65;100.00
58843;BME280;44614;54.356;10.100;2022-11-15T09:26:50;100886.66;;;6.69;100.00
58843;BME280;44614;54.356;10.100;2022-11-15T09:29:16;100885.22;;;6.73;100.00
58843;BME280;44614;54.356;10.100;2022-11-15T09:31:41;100870.91;;;6.71;100.00
58843;BME280;44614;54.356;10.100;2022-11-15T09:34:06;100873.06;;;6.75;100.00
58843;BME280;44614;54.356;10.100;2022-11-15T09:36:32;100876.22;;;6.79;100.00
58843;BME280;44614;54.356;10.100;2022-11-15T09:38:58;100850.91;;;6.64;100.00
58843;BME280;44614;54.356;10.100;2022-11-15T09:47:14;100892.06;;;6.90;100.00
58843;BME280;44614;54.356;10.100;2022-11-15T09:49:43;100886.59;;;6.90;100.00
58843;BME280;44614;54.356;10.100;2022-11-15T09:52:10;100856.50;;;6.77;100.00
58843;BME280;44614;54.356;10.100;2022-11-15T09:54:37;100884.16;;;6.95;100.00
58843;BME280;44614;54.356;10.100;2022-11-15T10:05:20;100869.50;;;7.03;100.00
58843;BME280;44614;54.356;10.100;2022-11-15T10:08:03;100856.91;;;7.08;100.00
58843;BME280;44614;54.356;10.100;2022-11-15T10:10:42;100859.66;;;7.08;100.00
58843;BME280;44614;54.356;10.100;2022-11-15T10:13:24;100862.44;;;7.15;100.00
58843;BME280;44614;54.356;10.100;2022-11-15T10:15:51;100860.16;;;7.19;100.00
58843;BME280;44614;54.356;10.100;2022-11-15T10:18:35;100858.69;;;7.23;100.00
58843;BME280;44614;54.356;10.100;2022-11-15T10:21:16;100852.84;;;7.26;100.00
58843;BME280;44614;54.356;10.100;2022-11-15T10:23:42;100843.81;;;7.25;100.00
58843;BME280;44614;54.356;10.100;2022-11-15T10:26:11;100848.44;;;7.31;100.00
58843;BME280;44614;54.356;10.100;2022-11-15T10:28:38;100851.19;;;7.31;100.00
58843;BME280;44614;54.356;10.100;2022-11-15T10:31:21;100851.63;;;7.35;100.00
58843;BME280;44614;54.356;10.100;2022-11-15T10:33:47;100850.56;;;7.36;100.00
58843;BME280;44614;54.356;10.100;2022-11-15T10:38:56;100803.22;;;7.22;100.00
58843;BME280;44614;54.356;10.100;2022-11-15T10:41:31;100850.22;;;7.46;100.00
58843;BME280;44614;54.356;10.100;2022-11-15T10:44:22;100843.69;;;7.47;100.00
58843;BME280;44614;54.356;10.100;2022-11-15T10:46:50;100852.09;;;7.45;100.00
58843;BME280;44614;54.356;10.100;2022-11-15T10:49:30;100862.81;;;7.47;100.00
58843;BME280;44614;54.356;10.100;2022-11-15T10:51:58;100851.72;;;7.48;100.00
58843;BME280;44614;54.356;10.100;2022-11-15T10:54:53;100850.88;;;7.48;100.00
58843;BME280;44614;54.356;10.100;2022-11-15T10:57:22;100855.06;;;7.50;100.00
58843;BME280;44614;54.356;10.100;2022-11-15T11:00:01;100854.00;;;7.51;100.00
58843;BME280;44614;54.356;10.100;2022-11-15T11:02:38;100837.78;;;7.43;100.00
58843;BME280;44614;54.356;10.100;2022-11-15T11:05:12;100835.53;;;7.53;100.00
58843;BME280;44614;54.356;10.100;2022-11-15T11:08:37;100823.09;;;7.51;100.00
58843;BME280;44614;54.356;10.100;2022-11-15T11:10:55;100831.13;;;7.52;100.00
58843;BME280;44614;54.356;10.100;2022-11-15T11:13:25;100839.09;;;7.54;100.00
58843;BME280;44614;54.356;10.100;2022-11-15T11:18:44;100825.44;;;7.54;100.00
58843;BME280;44614;54.356;10.100;2022-11-15T11:21:18;100827.13;;;7.55;100.00
58843;BME280;44614;54.356;10.100;2022-11-15T11:24:03;100818.09;;;7.54;100.00
58843;BME280;44614;54.356;10.100;2022-11-15T11:30:00;100804.22;;;7.56;100.00
58843;BME280;44614;54.356;10.100;2022-11-15T11:32:39;100797.94;;;7.55;100.00
58843;BME280;44614;54.356;10.100;2022-11-15T11:35:29;100802.13;;;7.58;100.00
58843;BME280;44614;54.356;10.100;2022-11-15T11:38:19;100797.50;;;7.58;100.00
58843;BME280;44614;54.356;10.100;2022-11-15T11:41:08;100798.16;;;7.61;100.00
58843;BME280;44614;54.356;10.100;2022-11-15T11:46:36;100796.28;;;7.68;100.00
58843;BME280;44614;54.356;10.100;2022-11-15T11:52:11;100778.59;;;7.70;100.00
58843;BME280;44614;54.356;10.100;2022-11-15T11:57:33;100777.81;;;7.76;100.00
58843;BME280;44614;54.356;10.100;2022-11-15T12:00:18;100774.44;;;7.81;100.00
58843;BME280;44614;54.356;10.100;2022-11-15T12:03:12;100766.88;;;7.83;100.00
58843;BME280;44614;54.356;10.100;2022-11-15T12:08:19;100742.88;;;7.72;100.00
58843;BME280;44614;54.356;10.100;2022-11-15T12:10:53;100790.25;;;7.92;100.00
58843;BME280;44614;54.356;10.100;2022-11-15T12:13:25;100788.16;;;7.94;100.00
58843;BME280;44614;54.356;10.100;2022-11-15T12:16:07;100783.31;;;7.96;100.00
58843;BME280;44614;54.356;10.100;2022-11-15T12:18:36;100782.91;;;7.99;100.00
58843;BME280;44614;54.356;10.100;2022-11-15T12:21:16;100769.88;;;8.01;100.00
58843;BME280;44614;54.356;10.100;2022-11-15T12:23:55;100769.44;;;8.04;100.00
58843;BME280;44614;54.356;10.100;2022-11-15T12:26:27;100763.97;;;8.04;100.00
58843;BME280;44614;54.356;10.100;2022-11-15T12:29:00;100746.69;;;7.97;100.00
58843;BME280;44614;54.356;10.100;2022-11-15T12:34:02;100755.97;;;8.16;100.00
58843;BME280;44614;54.356;10.100;2022-11-15T12:36:35;100755.78;;;8.18;100.00
58843;BME280;44614;54.356;10.100;2022-11-15T12:39:04;100752.63;;;8.21;100.00
58843;BME280;44614;54.356;10.100;2022-11-15T12:41:35;100757.66;;;8.24;100.00
58843;BME280;44614;54.356;10.100;2022-11-15T12:44:02;100747.59;;;8.24;100.00
58843;BME280;44614;54.356;10.100;2022-11-15T12:49:02;100743.16;;;8.23;100.00
58843;BME280;44614;54.356;10.100;2022-11-15T13:04:49;100732.19;;;8.23;100.00
58843;BME280;44614;54.356;10.100;2022-11-15T13:12:57;100723.59;;;8.26;100.00
58843;BME280;44614;54.356;10.100;2022-11-15T13:15:59;100725.47;;;8.26;100.00
58843;BME280;44614;54.356;10.100;2022-11-15T13:18:29;100728.22;;;8.26;100.00
58843;BME280;44614;54.356;10.100;2022-11-15T13:20:55;100717.28;;;8.26;100.00
58843;BME280;44614;54.356;10.100;2022-11-15T13:23:21;100727.81;;;8.29;100.00
58843;BME280;44614;54.356;10.100;2022-11-15T13:28:42;100725.69;;;8.31;100.00
58843;BME280;44614;54.356;10.100;2022-11-15T13:31:28;100722.34;;;8.29;100.00
58843;BME280;44614;54.356;10.100;2022-11-15T13:33:58;100715.78;;;8.30;100.00
58843;BME280;44614;54.356;10.100;2022-11-15T13:36:27;100731.16;;;8.31;100.00
58843;BME280;44614;54.356;10.100;2022-11-15T13:38:56;100713.91;;;8.30;100.00
58843;BME280;44614;54.356;10.100;2022-11-15T13:41:24;100713.47;;;8.34;100.00
58843;BME280;44614;54.356;10.100;2022-11-15T13:43:51;100720.22;;;8.31;100.00
58843;BME280;44614;54.356;10.100;2022-11-15T13:46:19;100709.69;;;8.35;100.00
58843;BME280;44614;54.356;10.100;2022-11-15T13:48:48;100699.00;;;8.40;100.00
58843;BME280;44614;54.356;10.100;2022-11-15T13:51:27;100693.72;;;8.38;100.00
58843;BME280;44614;54.356;10.100;2022-11-15T13:53:58;100708.47;;;8.44;100.00
58843;BME280;44614;54.356;10.100;2022-11-15T13:56:27;100695.38;;;8.39;100.00
58843;BME280;44614;54.356;10.100;2022-11-15T13:58:54;100691.59;;;8.47;100.00
58843;BME280;44614;54.356;10.100;2022-11-15T14:01:21;100681.28;;;8.49;100.00
58843;BME280;44614;54.356;10.100;2022-11-15T14:04:00;100687.59;;;8.49;100.00
58843;BME280;44614;54.356;10.100;2022-11-15T14:06:28;100658.34;;;8.30;100.00
58843;BME280;44614;54.356;10.100;2022-11-15T14:11:37;100649.50;;;8.35;100.00
58843;BME280;44614;54.356;10.100;2022-11-15T14:16:36;100689.47;;;8.62;100.00
58843;BME280;44614;54.356;10.100;2022-11-15T14:19:03;100657.50;;;8.49;100.00
58843;BME280;44614;54.356;10.100;2022-11-15T14:21:29;100674.94;;;8.68;100.00
58843;BME280;44614;54.356;10.100;2022-11-15T14:24:14;100669.88;;;8.72;100.00
58843;BME280;44614;54.356;10.100;2022-11-15T14:26:39;100661.47;;;8.67;100.00
58843;BME280;44614;54.356;10.100;2022-11-15T14:29:24;100666.28;;;8.78;100.00